Terminal Aerodrome Forecast
Issued by NWS Brownsville, TX

Home | Current Version | Previous Version | Text Only | Print | Product List | Glossary On
Versions: 1 2 3 4 5 6 7 8 9 10 11 12
212
FTUS44 KBRO 221120
TAFMFE
TAF
KMFE 221120Z 2212/2312 VRB02KT P6SM FEW020
     FM221500 10010KT P6SM SCT050
     FM230500 09005KT P6SM FEW030
     FM230800 VRB02KT P6SM FEW020=

USA.gov is the U.S. government's official web portal to all federal, state and local government web resources and services.